Time;durP1;ratioP1;P1;durP2;ratioP2;P2;SDS_P1;SDS_P2;PMS_P1;PMS_P2;Temp;Humidity;BMP_temperature;BMP_pressure;BME280_temperature;BME280_humidity;BME280_pressure;Samples;Min_cycle;Max_cycle;Signal;HPM_P1;HPM_P2
2023/07/10 00:00:51;;;;;;;5.75;3.60;;;;;;;30.50;24.88;101475.38;4981932;28;98862;-64
2023/07/10 00:03:17;;;;;;;6.65;3.53;;;;;;;30.31;24.80;101476.47;4990829;28;97074;-64
2023/07/10 00:05:44;;;;;;;7.97;3.50;;;;;;;30.36;25.20;101479.56;4985362;28;99051;-65
2023/07/10 00:08:11;;;;;;;4.38;3.00;;;;;;;30.48;24.63;101477.38;4992208;28;101800;-64
2023/07/10 00:10:39;;;;;;;4.18;3.47;;;;;;;30.58;23.80;101477.28;4990540;28;97784;-65
2023/07/10 00:13:05;;;;;;;3.60;3.30;;;;;;;30.62;23.62;101473.19;4990812;28;97482;-64
2023/07/10 00:15:32;;;;;;;5.53;2.97;;;;;;;30.71;23.95;101472.19;4990243;28;98994;-63
2023/07/10 00:17:58;;;;;;;6.00;3.25;;;;;;;30.67;24.15;101465.34;4990755;28;98774;-64
2023/07/10 00:20:26;;;;;;;4.32;3.25;;;;;;;30.63;23.86;101464.84;4985413;28;96851;-64
2023/07/10 00:22:53;;;;;;;3.70;2.70;;;;;;;30.76;24.15;101475.25;4986360;28;96890;-63
2023/07/10 00:25:20;;;;;;;6.20;3.25;;;;;;;30.40;24.87;101475.47;4987213;28;98005;-64
2023/07/10 00:27:52;;;;;;;5.47;3.13;;;;;;;30.36;24.96;101471.38;4987733;28;102543;-64
2023/07/10 00:30:20;;;;;;;9.23;3.17;;;;;;;30.48;24.10;101478.22;4989937;28;96951;-65
2023/07/10 00:32:52;;;;;;;7.38;3.50;;;;;;;30.37;25.74;101489.44;4990837;28;96929;-64
2023/07/10 00:35:19;;;;;;;4.75;3.28;;;;;;;30.19;26.29;101491.44;4991147;28;99245;-64
2023/07/10 00:37:49;;;;;;;6.03;3.05;;;;;;;30.19;26.09;101499.59;4990359;28;98778;-64
2023/07/10 00:40:21;;;;;;;4.75;3.10;;;;;;;29.91;26.88;101503.50;4987761;28;96801;-64
2023/07/10 00:42:53;;;;;;;8.38;3.00;;;;;;;30.14;26.38;101504.66;4988894;28;97733;-64
2023/07/10 00:45:20;;;;;;;4.78;2.97;;;;;;;30.38;26.30;101502.06;4986608;28;102617;-64
2023/07/10 00:47:57;;;;;;;7.80;3.72;;;;;;;30.12;24.99;101509.44;4983866;28;99235;-64
2023/07/10 00:50:31;;;;;;;4.72;3.10;;;;;;;29.90;26.17;101529.03;4987391;28;96815;-64
2023/07/10 00:53:00;;;;;;;4.70;3.20;;;;;;;29.73;27.09;101546.28;4985993;28;96808;-64
2023/07/10 00:55:29;;;;;;;4.30;3.00;;;;;;;29.89;26.32;101541.78;4989203;28;99119;-64
2023/07/10 00:58:07;;;;;;;5.57;3.40;;;;;;;29.91;26.32;101550.69;4991490;28;98816;-64
2023/07/10 01:00:34;;;;;;;5.68;3.92;;;;;;;29.51;27.21;101559.41;4987584;28;96896;-63
2023/07/10 01:03:01;;;;;;;6.43;3.88;;;;;;;29.28;27.89;101585.34;4980962;28;96808;-64
2023/07/10 01:05:31;;;;;;;5.63;3.65;;;;;;;29.23;27.95;101598.56;4990506;28;99030;-64
2023/07/10 01:08:01;;;;;;;7.88;4.18;;;;;;;29.07;28.58;101582.09;4986198;28;97614;-64
2023/07/10 01:10:28;;;;;;;8.40;4.28;;;;;;;29.51;27.97;101564.00;4990012;28;96828;-64
2023/07/10 01:12:54;;;;;;;8.65;3.90;;;;;;;29.51;28.09;101575.75;4983977;28;96817;-64
2023/07/10 01:15:22;;;;;;;9.52;4.75;;;;;;;29.23;28.46;101580.38;4990140;28;98946;-64
2023/07/10 01:17:49;;;;;;;7.75;4.07;;;;;;;29.44;28.09;101580.09;4989588;28;102231;-64
2023/07/10 01:20:37;;;;;;;12.98;4.47;;;;;;;29.21;28.57;101560.63;4987670;28;97990;-64
2023/07/10 01:23:06;;;;;;;9.15;4.35;;;;;;;29.12;28.69;101558.00;4988900;28;96866;-64
2023/07/10 01:25:38;;;;;;;5.57;4.07;;;;;;;29.35;28.34;101556.53;4987344;28;98923;-64
2023/07/10 01:28:09;;;;;;;5.25;3.60;;;;;;;29.39;28.48;101559.81;4986129;28;98994;-64
2023/07/10 01:30:39;;;;;;;4.28;3.85;;;;;;;29.14;28.49;101556.84;4989626;28;96952;-64
2023/07/10 01:33:10;;;;;;;11.73;4.05;;;;;;;29.14;28.41;101545.94;4983476;28;96833;-64
2023/07/10 01:35:37;;;;;;;4.95;4.15;;;;;;;29.35;27.98;101532.03;4990158;28;98873;-64
2023/07/10 01:38:05;;;;;;;6.88;4.28;;;;;;;29.42;28.49;101516.78;4990465;28;102512;-64
2023/07/10 01:40:37;;;;;;;6.18;3.95;;;;;;;29.70;28.26;101522.94;4989529;28;96885;-64
2023/07/10 01:43:04;;;;;;;9.02;4.40;;;;;;;29.49;28.83;101517.84;4990279;28;97035;-64
2023/07/10 01:45:42;;;;;;;6.50;3.97;;;;;;;29.62;28.23;101512.00;4984775;28;98399;-64
2023/07/10 01:48:08;;;;;;;5.25;4.10;;;;;;;29.55;29.22;101503.59;4985092;28;98342;-64
2023/07/10 01:50:35;;;;;;;6.30;4.00;;;;;;;29.28;30.57;101503.69;4984968;28;96866;-63
2023/07/10 01:53:02;;;;;;;7.43;4.35;;;;;;;29.17;31.31;101490.34;4986841;28;97200;-63
2023/07/10 01:55:30;;;;;;;12.13;4.35;;;;;;;29.14;31.10;101469.75;4983430;28;97699;-64
2023/07/10 01:57:57;;;;;;;5.57;3.85;;;;;;;29.26;30.69;101468.50;4986971;28;98538;-64
2023/07/10 02:00:23;;;;;;;8.95;4.38;;;;;;;29.33;30.63;101471.44;4989399;28;98121;-64
2023/07/10 02:02:50;;;;;;;4.82;4.13;;;;;;;29.43;30.12;101480.38;4987099;28;96941;-64
2023/07/10 02:05:16;;;;;;;6.03;4.47;;;;;;;29.41;29.83;101476.94;4983787;28;99286;-64
2023/07/10 02:07:43;;;;;;;5.15;4.18;;;;;;;29.48;29.77;101455.38;4989206;28;97507;-64
2023/07/10 02:10:10;;;;;;;7.05;4.35;;;;;;;29.41;30.00;101449.72;4989441;28;96856;-65
2023/07/10 02:12:38;;;;;;;8.45;4.53;;;;;;;29.34;30.49;101442.38;4987181;28;96832;-65
2023/07/10 02:15:05;;;;;;;5.63;4.50;;;;;;;29.33;30.63;101446.94;4987114;28;99117;-64
2023/07/10 02:17:32;;;;;;;8.30;4.20;;;;;;;29.41;29.75;101446.13;4988506;28;97613;-64
2023/07/10 02:19:58;;;;;;;5.32;3.90;;;;;;;29.37;30.01;101442.91;4988480;28;97036;-64
2023/07/10 02:22:24;;;;;;;5.72;3.92;;;;;;;29.45;29.99;101444.81;4989113;28;96852;-64
2023/07/10 02:24:51;;;;;;;5.40;3.63;;;;;;;29.46;29.28;101435.66;4983694;28;101955;-64
2023/07/10 02:27:18;;;;;;;7.75;4.10;;;;;;;29.40;29.24;101436.28;4984888;28;97103;-64
2023/07/10 02:29:46;;;;;;;5.50;4.00;;;;;;;29.43;29.42;101427.78;4986554;28;96888;-64
2023/07/10 02:32:12;;;;;;;5.65;4.22;;;;;;;29.53;28.70;101418.53;4992110;28;97487;-64
2023/07/10 02:34:39;;;;;;;6.50;4.22;;;;;;;29.41;29.15;101425.22;4987160;28;98688;-64
2023/07/10 02:37:06;;;;;;;7.50;3.90;;;;;;;29.38;29.13;101416.53;4992572;28;99161;-63
2023/07/10 02:39:32;;;;;;;8.20;4.20;;;;;;;29.28;29.10;101422.88;4994081;28;97108;-64
2023/07/10 02:41:59;;;;;;;7.88;4.40;;;;;;;29.16;28.66;101421.44;4991096;28;98049;-64
2023/07/10 02:44:25;;;;;;;6.80;3.88;;;;;;;29.33;28.84;101417.00;4982678;28;97905;-63
2023/07/10 02:46:53;;;;;;;6.70;3.95;;;;;;;29.14;29.04;101414.47;4992455;28;98966;-64
2023/07/10 02:49:19;;;;;;;4.50;3.90;;;;;;;29.03;28.82;101406.53;4986906;28;96890;-64
2023/07/10 02:51:46;;;;;;;5.13;4.00;;;;;;;28.91;29.10;101400.50;4991381;28;96836;-64
2023/07/10 02:54:13;;;;;;;5.53;4.13;;;;;;;28.67;29.86;101395.69;4989789;28;99436;-63
2023/07/10 02:56:40;;;;;;;6.72;4.30;;;;;;;28.80;29.46;101388.00;4990018;28;99082;-64
2023/07/10 02:59:06;;;;;;;4.43;3.85;;;;;;;28.56;30.01;101390.44;4992579;28;97374;-63
2023/07/10 03:01:33;;;;;;;4.00;3.60;;;;;;;28.57;30.11;101389.44;4988478;28;96878;-63
2023/07/10 03:04:01;;;;;;;4.90;4.07;;;;;;;28.46;30.23;101379.69;4989224;28;98998;-63
2023/07/10 03:06:27;;;;;;;4.93;3.80;;;;;;;28.65;30.14;101365.06;4991575;28;99040;-64
2023/07/10 03:08:53;;;;;;;9.45;4.60;;;;;;;28.69;30.17;101355.56;4990683;28;96821;-64
2023/07/10 03:11:22;;;;;;;6.88;3.85;;;;;;;28.46;30.55;101359.78;4990795;28;96920;-64
2023/07/10 03:13:49;;;;;;;6.03;3.47;;;;;;;28.54;30.49;101346.28;4991481;28;99061;-64
2023/07/10 03:16:17;;;;;;;5.20;3.58;;;;;;;28.37;30.88;101341.69;4985154;28;99331;-63
2023/07/10 03:18:43;;;;;;;8.15;4.15;;;;;;;28.54;30.48;101328.09;4987841;28;96854;-64
2023/07/10 03:21:11;;;;;;;5.80;3.67;;;;;;;28.63;30.64;101329.00;4986777;28;97070;-64
2023/07/10 03:23:38;;;;;;;7.30;3.97;;;;;;;28.47;30.76;101332.47;4982158;28;97936;-67
2023/07/10 03:26:04;;;;;;;8.15;3.70;;;;;;;28.39;30.86;101332.38;4986491;28;99526;-63
2023/07/10 03:28:35;;;;;;;7.22;3.80;;;;;;;28.56;30.62;101327.94;4991560;28;96967;-63
2023/07/10 03:31:02;;;;;;;5.20;3.78;;;;;;;28.50;30.75;101328.56;4987976;28;97021;-64
2023/07/10 03:33:28;;;;;;;4.03;3.15;;;;;;;28.18;31.93;101328.25;4991780;28;99492;-63
2023/07/10 03:35:59;;;;;;;10.07;3.83;;;;;;;28.09;32.28;101328.13;4990289;28;98896;-64
2023/07/10 03:38:27;;;;;;;8.68;3.90;;;;;;;27.84;33.38;101333.44;4990800;28;97780;-63
2023/07/10 03:40:56;;;;;;;4.15;3.70;;;;;;;27.83;34.23;101332.56;4991082;28;96999;-63
2023/07/10 03:43:24;;;;;;;9.73;4.30;;;;;;;28.08;33.38;101333.72;4990875;28;99417;-63
2023/07/10 03:45:50;;;;;;;9.57;4.00;;;;;;;27.94;33.57;101335.09;4990645;28;99130;-63
2023/07/10 03:48:17;;;;;;;8.35;4.10;;;;;;;28.00;33.48;101331.78;4987039;28;96805;-64
2023/07/10 03:50:43;;;;;;;6.70;3.70;;;;;;;28.02;33.29;101335.19;4984892;28;97037;-64
2023/07/10 03:53:10;;;;;;;5.30;3.83;;;;;;;28.21;32.53;101338.81;4983393;28;99698;-64
2023/07/10 03:55:38;;;;;;;9.50;4.10;;;;;;;28.06;33.66;101342.03;4985891;28;98937;-64
2023/07/10 03:58:18;;;;;;;5.72;3.38;;;;;;;27.81;35.03;101340.03;4990447;28;97044;-64
2023/07/10 04:00:44;;;;;;;7.22;4.18;;;;;;;28.07;33.91;101332.88;4990458;28;96942;-64
2023/07/10 04:03:11;;;;;;;7.28;4.18;;;;;;;28.24;33.79;101324.91;4992451;28;99001;-63
2023/07/10 04:05:37;;;;;;;6.43;4.63;;;;;;;28.28;32.87;101319.03;4984400;28;99000;-63
2023/07/10 04:08:04;;;;;;;7.18;3.80;;;;;;;28.53;32.02;101323.69;4987385;28;97030;-64
2023/07/10 04:10:30;;;;;;;5.00;3.88;;;;;;;28.63;31.99;101315.41;4988439;28;96890;-64
2023/07/10 04:12:58;;;;;;;10.82;4.22;;;;;;;28.71;31.59;101306.47;4987636;28;97831;-64
2023/07/10 04:15:25;;;;;;;11.43;4.32;;;;;;;28.68;31.33;101302.22;4985796;28;98877;-65
2023/07/10 04:17:51;;;;;;;7.10;3.88;;;;;;;28.45;32.14;101309.16;4985394;28;96872;-63
2023/07/10 04:20:17;;;;;;;5.63;4.00;;;;;;;28.50;31.52;101313.09;4990267;28;99406;-64
2023/07/10 04:22:44;;;;;;;6.90;4.63;;;;;;;28.66;31.50;101301.53;4988362;28;97560;-63
2023/07/10 04:25:10;;;;;;;8.50;4.05;;;;;;;28.54;32.75;101308.22;4983223;28;99389;-63
2023/07/10 04:27:37;;;;;;;10.45;4.07;;;;;;;28.59;32.32;101295.00;4988160;28;96763;-63
2023/07/10 04:30:06;;;;;;;7.80;3.75;;;;;;;28.48;32.11;101290.69;4980961;28;97227;-63
2023/07/10 04:32:32;;;;;;;8.00;3.70;;;;;;;28.71;31.44;101292.88;4989277;28;98886;-64
2023/07/10 04:34:58;;;;;;;9.27;4.18;;;;;;;28.89;30.67;101286.41;4988109;28;97609;-64
2023/07/10 04:37:25;;;;;;;7.13;3.72;;;;;;;28.78;30.71;101286.69;4980430;28;96771;-64
2023/07/10 04:39:54;;;;;;;5.70;4.07;;;;;;;28.89;30.07;101291.84;4983508;28;96942;-63
2023/07/10 04:42:21;;;;;;;9.10;4.05;;;;;;;29.13;29.63;101282.16;4982052;28;101687;-64
2023/07/10 04:44:47;;;;;;;7.47;3.95;;;;;;;29.23;29.45;101282.88;4984307;28;98097;-64
2023/07/10 04:47:15;;;;;;;6.18;3.63;;;;;;;29.42;29.25;101293.53;4980198;28;97178;-63
2023/07/10 04:49:41;;;;;;;7.13;3.47;;;;;;;29.39;29.04;101293.88;4985081;28;96809;-63
2023/07/10 04:52:08;;;;;;;6.07;4.10;;;;;;;29.60;29.05;101297.00;4978342;28;98877;-64
2023/07/10 04:54:35;;;;;;;7.95;3.95;;;;;;;29.60;28.76;101297.00;4989764;28;98068;-64
2023/07/10 04:57:01;;;;;;;11.18;4.30;;;;;;;29.72;29.03;101305.75;4982023;28;97110;-64
2023/07/10 04:59:27;;;;;;;8.30;3.47;;;;;;;29.86;28.67;101318.75;4986984;28;96767;-65
2023/07/10 05:01:54;;;;;;;8.30;3.97;;;;;;;29.73;29.63;101322.94;4977595;28;99144;-63
2023/07/10 05:04:21;;;;;;;10.90;3.60;;;;;;;29.99;29.90;101337.38;4976216;28;98267;-64
2023/07/10 05:06:51;;;;;;;10.73;3.88;;;;;;;30.07;29.52;101348.28;4978422;28;97579;-64
2023/07/10 05:09:18;;;;;;;5.43;3.50;;;;;;;29.61;29.98;101355.91;4980607;28;96862;-65
2023/07/10 05:11:44;;;;;;;5.60;3.30;;;;;;;29.37;29.34;101363.97;4983912;28;99087;-65
2023/07/10 05:14:11;;;;;;;6.70;3.70;;;;;;;29.27;29.62;101364.06;4982961;28;98802;-65
2023/07/10 05:16:38;;;;;;;6.00;4.07;;;;;;;29.31;30.40;101362.72;4986079;28;97059;-64
2023/07/10 05:19:04;;;;;;;7.57;4.40;;;;;;;29.43;31.97;101371.47;4980667;28;96959;-64
2023/07/10 05:21:32;;;;;;;7.50;4.32;;;;;;;29.22;34.96;101396.31;4984190;28;99004;-64
2023/07/10 05:23:58;;;;;;;9.52;4.55;;;;;;;28.65;36.90;101435.75;4988794;28;99050;-64
2023/07/10 05:26:25;;;;;;;4.57;3.70;;;;;;;28.26;37.95;101499.53;4988207;28;96941;-64
2023/07/10 05:28:51;;;;;;;8.98;4.40;;;;;;;27.40;36.62;101523.16;4986863;28;97868;-64
2023/07/10 05:31:18;;;;;;;19.55;4.70;;;;;;;26.98;36.42;101483.78;4987675;28;99020;-63
2023/07/10 05:33:44;;;;;;;7.25;3.65;;;;;;;27.07;37.29;101488.34;4989013;28;98545;-64
2023/07/10 05:36:13;;;;;;;12.98;3.92;;;;;;;27.24;37.99;101512.88;4985600;28;96880;-63
2023/07/10 05:38:41;;;;;;;6.95;4.40;;;;;;;26.95;38.96;101547.28;4980220;28;97902;-63
2023/07/10 05:41:08;;;;;;;8.05;4.38;;;;;;;27.20;39.39;101492.47;4985117;28;101875;-63
2023/07/10 05:43:36;;;;;;;6.70;4.10;;;;;;;27.36;37.64;101527.19;4986963;28;99315;-63
2023/07/10 05:46:04;;;;;;;6.85;4.72;;;;;;;27.16;39.59;101531.75;4989887;28;98571;-64
2023/07/10 05:48:31;;;;;;;11.40;4.40;;;;;;;27.41;38.74;101514.03;4990720;28;96955;-64
2023/07/10 05:50:57;;;;;;;7.07;4.30;;;;;;;27.79;39.97;101513.13;4983939;28;97918;-64
2023/07/10 05:53:24;;;;;;;13.80;4.38;;;;;;;27.45;43.01;101503.72;4989256;28;98011;-64
2023/07/10 05:55:54;;;;;;;7.85;4.68;;;;;;;27.42;43.39;101498.59;4983451;28;96895;-64
2023/07/10 05:58:23;;;;;;;8.80;5.03;;;;;;;27.58;44.75;101479.88;4990613;28;97105;-64
2023/07/10 06:00:51;;;;;;;12.70;5.53;;;;;;;27.69;45.06;101469.72;4990313;28;99319;-64
2023/07/10 06:03:18;;;;;;;10.30;5.20;;;;;;;27.59;45.71;101465.31;4990645;28;99084;-63
2023/07/10 06:05:53;;;;;;;10.85;5.55;;;;;;;27.57;47.64;101435.56;4983749;28;99165;-64
2023/07/10 06:08:20;;;;;;;10.43;5.83;;;;;;;27.52;48.23;101415.31;4990602;28;98470;-65
2023/07/10 06:10:46;;;;;;;15.35;6.18;;;;;;;27.14;48.83;101379.13;4993878;28;101336;-64
2023/07/10 06:13:14;;;;;;;14.57;6.35;;;;;;;27.30;48.89;101362.25;4993566;28;99512;-65
2023/07/10 06:15:42;;;;;;;15.60;6.72;;;;;;;27.28;50.51;101378.66;4993761;28;96953;-64
2023/07/10 06:18:08;;;;;;;16.00;6.22;;;;;;;27.02;51.67;101385.72;4994774;28;96841;-64
2023/07/10 06:20:34;;;;;;;11.00;6.30;;;;;;;26.76;50.55;101377.28;4993456;28;99040;-65
2023/07/10 06:23:01;;;;;;;15.43;6.53;;;;;;;27.16;51.30;101362.69;4993760;28;99997;-64
2023/07/10 06:25:27;;;;;;;15.85;6.35;;;;;;;27.26;48.91;101358.94;4994297;28;96855;-64
2023/07/10 06:27:53;;;;;;;11.80;6.13;;;;;;;27.58;48.78;101358.56;4994073;28;96859;-64
2023/07/10 06:30:21;;;;;;;11.57;5.57;;;;;;;27.82;47.08;101363.47;4988211;28;99233;-63
2023/07/10 06:32:48;;;;;;;12.27;5.57;;;;;;;27.96;47.14;101376.53;4979707;28;99218;-64
2023/07/10 06:35:15;;;;;;;10.38;6.00;;;;;;;27.30;48.81;101375.81;4982588;28;96717;-63
2023/07/10 06:37:42;;;;;;;11.82;5.93;;;;;;;27.52;49.37;101371.88;4993679;28;96878;-64
2023/07/10 06:40:11;;;;;;;9.57;6.07;;;;;;;28.12;47.16;101373.16;4993129;28;101199;-64
2023/07/10 06:42:38;;;;;;;8.80;5.75;;;;;;;28.10;46.92;101375.16;4993521;28;99123;-64
2023/07/10 06:45:06;;;;;;;12.50;6.82;;;;;;;27.84;51.47;101372.31;4993640;28;96882;-64
2023/07/10 06:47:40;;;;;;;15.35;6.90;;;;;;;27.78;50.33;101359.34;4993601;28;96866;-63
2023/07/10 06:50:08;;;;;;;9.88;6.40;;;;;;;28.16;48.81;101352.03;4986791;28;103900;-64
2023/07/10 06:52:34;;;;;;;15.20;6.28;;;;;;;28.09;48.15;101358.00;4993602;28;98777;-64
2023/07/10 06:55:00;;;;;;;9.32;5.78;;;;;;;28.36;46.16;101364.44;4993925;28;96768;-64
2023/07/10 06:57:27;;;;;;;10.75;6.03;;;;;;;28.65;46.39;101362.34;4994194;28;96906;-65
2023/07/10 06:59:53;;;;;;;9.70;5.68;;;;;;;28.99;44.02;101361.63;4992626;28;99404;-64
2023/07/10 07:02:20;;;;;;;9.18;5.78;;;;;;;29.10;43.36;101358.63;4993415;28;98152;-64
2023/07/10 07:04:47;;;;;;;13.30;6.30;;;;;;;29.09;43.31;101354.22;4993071;28;97093;-64
2023/07/10 07:07:14;;;;;;;14.50;6.18;;;;;;;29.30;42.62;101344.66;4993488;28;97039;-64
2023/07/10 07:09:42;;;;;;;12.73;5.93;;;;;;;29.56;40.97;101344.66;4993515;28;99780;-64
2023/07/10 07:12:10;;;;;;;10.73;6.13;;;;;;;29.48;40.94;101341.88;4983342;28;97833;-64
2023/07/10 07:14:37;;;;;;;12.02;6.00;;;;;;;29.70;40.96;101344.03;4992649;28;97132;-63
2023/07/10 07:17:05;;;;;;;14.63;6.15;;;;;;;29.49;40.37;101335.44;4993213;28;96907;-63
2023/07/10 07:19:32;;;;;;;16.23;6.05;;;;;;;29.35;40.27;101338.75;4992722;28;99085;-64
2023/07/10 07:22:00;;;;;;;7.32;5.53;;;;;;;29.14;41.03;101338.28;4992720;28;99134;-65
2023/07/10 07:24:27;;;;;;;12.65;5.78;;;;;;;29.19;40.97;101341.38;4994291;28;96627;-64
2023/07/10 07:26:53;;;;;;;11.75;5.35;;;;;;;29.36;40.55;101340.47;4995465;28;96799;-65
2023/07/10 07:29:20;;;;;;;7.63;5.35;;;;;;;29.54;39.49;101330.34;4992792;28;102414;-65
2023/07/10 07:31:46;;;;;;;12.85;6.25;;;;;;;29.51;39.95;101327.97;4992085;28;98863;-65
2023/07/10 07:34:14;;;;;;;15.07;5.68;;;;;;;29.59;40.70;101329.88;4993073;28;96699;-66
2023/07/10 07:36:41;;;;;;;12.00;6.00;;;;;;;29.56;40.55;101327.47;4993034;28;96861;-65
2023/07/10 07:39:08;;;;;;;13.13;5.70;;;;;;;29.59;39.87;101324.44;4993153;28;101812;-65
2023/07/10 07:41:35;;;;;;;11.82;5.85;;;;;;;30.32;38.79;101314.63;4991943;28;99529;-65
2023/07/10 07:44:02;;;;;;;10.00;5.57;;;;;;;30.88;36.46;101310.19;4992633;28;96996;-65
2023/07/10 07:46:29;;;;;;;12.38;5.72;;;;;;;30.83;37.14;101312.59;4993764;28;96954;-65
2023/07/10 07:48:56;;;;;;;13.70;6.78;;;;;;;31.36;35.95;101309.28;4991700;28;98273;-64
2023/07/10 07:51:22;;;;;;;9.85;5.80;;;;;;;31.62;35.19;101314.50;4986020;28;98301;-64
2023/07/10 07:54:00;;;;;;;8.90;5.72;;;;;;;31.65;33.20;101312.25;4991758;28;96750;-64
2023/07/10 07:56:28;;;;;;;13.55;6.53;;;;;;;32.04;32.79;101314.94;4992870;28;96708;-64
2023/07/10 07:58:55;;;;;;;11.07;5.68;;;;;;;32.00;32.94;101313.59;4992251;28;99358;-64
2023/07/10 08:01:22;;;;;;;8.90;5.47;;;;;;;32.34;31.88;101315.13;4992451;28;98304;-64
2023/07/10 08:03:48;;;;;;;11.40;6.15;;;;;;;32.28;32.49;101313.97;4976647;28;97297;-64
2023/07/10 08:06:15;;;;;;;11.55;5.35;;;;;;;32.37;32.43;101309.25;4988616;28;97383;-63
2023/07/10 08:08:41;;;;;;;10.30;5.38;;;;;;;32.58;31.33;101314.91;4985992;28;98991;-65
2023/07/10 08:11:08;;;;;;;7.43;5.05;;;;;;;33.09;30.65;101306.91;4987377;28;97807;-64
2023/07/10 08:13:38;;;;;;;15.35;5.53;;;;;;;33.00;29.86;101311.66;4980831;28;97285;-64
2023/07/10 08:16:05;;;;;;;8.80;5.57;;;;;;;32.92;29.30;101309.00;4980062;28;97517;-64
2023/07/10 08:18:31;;;;;;;8.90;5.00;;;;;;;33.28;29.93;101300.91;4988054;28;99412;-63
2023/07/10 08:21:02;;;;;;;6.07;5.10;;;;;;;32.78;30.83;101312.53;4988965;28;98044;-64
2023/07/10 08:23:28;;;;;;;9.93;5.35;;;;;;;32.42;30.90;101313.19;4990481;28;96770;-64
2023/07/10 08:25:54;;;;;;;9.32;5.90;;;;;;;32.11;31.34;101319.66;4990958;28;96917;-66
2023/07/10 08:28:21;;;;;;;5.88;5.00;;;;;;;32.21;31.47;101317.59;4989564;28;99137;-64
2023/07/10 08:30:48;;;;;;;10.27;5.90;;;;;;;32.42;30.88;101301.38;4989829;28;101677;-65
2023/07/10 08:33:15;;;;;;;8.77;6.00;;;;;;;32.59;31.33;101302.09;4989243;28;97290;-65
2023/07/10 08:35:41;;;;;;;7.80;5.43;;;;;;;32.33;31.76;101297.00;4984927;28;96909;-65
2023/07/10 08:38:08;;;;;;;7.32;5.00;;;;;;;32.42;32.12;101313.19;4983567;28;97834;-65
2023/07/10 08:40:37;;;;;;;7.22;5.32;;;;;;;32.55;31.39;101311.72;4989693;28;98608;-64
2023/07/10 08:43:16;;;;;;;11.30;5.18;;;;;;;32.58;31.31;101308.59;4987623;28;96900;-64
2023/07/10 08:45:45;;;;;;;10.52;5.78;;;;;;;32.90;31.70;101302.00;4985433;28;96804;-65
2023/07/10 08:48:26;;;;;;;12.55;5.95;;;;;;;32.57;31.20;101304.16;4987757;28;99024;-64
2023/07/10 08:50:56;;;;;;;9.57;5.70;;;;;;;32.80;31.07;101307.75;4986415;28;100162;-64
2023/07/10 08:53:28;;;;;;;11.73;5.55;;;;;;;32.58;31.53;101312.19;4989204;28;96784;-64
2023/07/10 08:56:03;;;;;;;8.75;5.78;;;;;;;32.54;31.97;101310.84;4986975;28;97504;-64
2023/07/10 08:58:34;;;;;;;9.20;5.73;;;;;;;32.89;31.81;101309.34;4989370;28;98145;-64
2023/07/10 09:01:04;;;;;;;18.05;5.65;;;;;;;33.33;31.46;101301.22;4987043;28;97588;-65
2023/07/10 09:03:39;;;;;;;11.10;5.85;;;;;;;33.11;31.11;101302.13;4989495;28;97223;-65
2023/07/10 09:06:06;;;;;;;8.38;5.57;;;;;;;32.99;30.82;101298.16;4989931;28;97483;-65
2023/07/10 09:08:34;;;;;;;6.70;5.53;;;;;;;33.44;30.47;101287.03;4988900;28;98813;-63
2023/07/10 09:11:03;;;;;;;9.98;5.55;;;;;;;33.29;30.73;101294.41;4985643;28;99407;-63
2023/07/10 09:13:40;;;;;;;9.57;6.07;;;;;;;33.32;29.96;101287.72;4988441;28;96813;-64
2023/07/10 09:16:14;;;;;;;8.75;5.53;;;;;;;33.28;30.76;101280.91;4988090;28;96807;-64
2023/07/10 09:18:48;;;;;;;7.60;5.30;;;;;;;32.81;30.93;101280.19;4989730;28;97524;-65
2023/07/10 09:21:17;;;;;;;9.90;5.40;;;;;;;32.94;30.75;101271.34;4988806;28;98821;-64
2023/07/10 09:23:45;;;;;;;12.25;5.10;;;;;;;32.84;30.62;101270.75;4989058;28;96961;-65
2023/07/10 09:26:14;;;;;;;10.82;5.80;;;;;;;33.04;30.76;101284.72;4990317;28;97420;-65
2023/07/10 09:28:41;;;;;;;8.43;5.90;;;;;;;32.94;31.27;101282.28;4988452;28;99271;-65
2023/07/10 09:31:19;;;;;;;8.43;5.82;;;;;;;32.82;32.18;101295.56;4989498;28;98759;-64
2023/07/10 09:33:54;;;;;;;8.77;5.00;;;;;;;32.87;31.08;101291.44;4987942;28;97651;-64
2023/07/10 09:36:23;;;;;;;6.72;5.38;;;;;;;32.58;31.77;101300.38;4989738;28;96777;-64
2023/07/10 09:38:52;;;;;;;19.40;6.93;;;;;;;32.88;31.53;101294.00;4985348;28;99045;-64
2023/07/10 09:41:22;;;;;;;22.08;6.63;;;;;;;33.17;30.83;101291.25;4988016;28;98105;-64
2023/07/10 09:43:51;;;;;;;11.88;5.85;;;;;;;33.36;31.16;101291.75;4992824;28;96940;-64
2023/07/10 09:46:17;;;;;;;12.38;5.55;;;;;;;33.24;31.03;101291.38;4987448;28;97883;-64
2023/07/10 09:48:47;;;;;;;6.53;4.85;;;;;;;33.04;30.40;101292.94;4992899;28;97842;-65
2023/07/10 09:51:14;;;;;;;9.45;5.25;;;;;;;33.20;30.04;101284.59;4989420;28;98859;-64
2023/07/10 09:53:45;;;;;;;9.15;5.50;;;;;;;33.57;29.23;101281.72;4993134;28;96853;-65
2023/07/10 09:56:21;;;;;;;8.45;5.63;;;;;;;33.41;29.69;101270.97;4992680;28;96961;-65
2023/07/10 09:58:47;;;;;;;7.63;5.53;;;;;;;33.20;30.31;101270.91;4987168;28;99019;-65
2023/07/10 10:01:14;;;;;;;9.50;5.32;;;;;;;33.36;30.35;101272.59;4991629;28;98708;-65
2023/07/10 10:03:42;;;;;;;8.27;5.40;;;;;;;33.59;30.29;101274.19;4984675;28;97093;-65
2023/07/10 10:06:21;;;;;;;8.45;5.75;;;;;;;33.47;29.70;101275.72;4992246;28;97180;-64
2023/07/10 10:08:49;;;;;;;8.65;5.13;;;;;;;33.53;30.10;101272.22;4988345;28;99432;-63
2023/07/10 10:11:16;;;;;;;6.65;5.63;;;;;;;33.65;29.79;101271.69;4986151;28;98060;-64
2023/07/10 10:13:46;;;;;;;7.63;5.55;;;;;;;33.50;29.49;101272.56;4990694;28;96716;-65
2023/07/10 10:16:21;;;;;;;8.15;5.28;;;;;;;33.78;29.62;101272.75;4992750;28;97277;-65
2023/07/10 10:18:52;;;;;;;6.15;5.35;;;;;;;34.21;28.48;101265.41;4989936;28;101333;-65
2023/07/10 10:21:21;;;;;;;9.85;5.97;;;;;;;34.00;29.00;101273.63;4990009;28;99194;-65
2023/07/10 10:23:50;;;;;;;7.20;5.45;;;;;;;34.30;29.35;101274.38;4987954;28;97421;-65
2023/07/10 10:26:34;;;;;;;8.90;5.32;;;;;;;34.42;28.26;101272.78;4991402;28;96989;-65
2023/07/10 10:29:16;;;;;;;8.13;5.30;;;;;;;34.61;28.33;101274.84;4991076;28;99381;-65
2023/07/10 10:31:51;;;;;;;8.45;5.38;;;;;;;34.68;28.12;101266.69;4986637;28;99677;-65
2023/07/10 10:34:29;;;;;;;6.37;5.77;;;;;;;34.22;28.63;101258.91;4988413;28;98038;-65
2023/07/10 10:37:12;;;;;;;7.85;6.10;;;;;;;34.30;29.18;101252.44;4989445;28;96916;-64
2023/07/10 10:39:43;;;;;;;6.50;5.05;;;;;;;34.68;28.19;101242.81;4990992;28;100195;-64
2023/07/10 10:42:18;;;;;;;10.88;5.07;;;;;;;34.27;29.82;101245.44;4990472;28;98300;-64
2023/07/10 10:44:53;;;;;;;9.80;5.53;;;;;;;34.33;30.10;101241.91;4989026;28;97184;-63
2023/07/10 10:47:40;;;;;;;6.40;4.50;;;;;;;34.41;28.75;101235.44;4989475;28;96737;-65
2023/07/10 10:50:23;;;;;;;7.28;4.97;;;;;;;34.37;29.66;101245.97;4984024;28;99381;-65
2023/07/10 10:53:02;;;;;;;8.38;5.20;;;;;;;34.34;29.13;101243.59;4988489;28;97551;-63
2023/07/10 10:55:37;;;;;;;6.28;4.22;;;;;;;34.32;29.07;101253.94;4990305;28;99669;-64
2023/07/10 10:58:22;;;;;;;8.43;4.53;;;;;;;34.52;28.16;101251.38;4991794;28;98485;-64
2023/07/10 11:01:06;;;;;;;7.33;4.40;;;;;;;34.69;27.75;101239.03;4983572;28;97681;-64
2023/07/10 11:03:37;;;;;;;5.20;3.58;;;;;;;34.70;27.39;101237.16;4986702;28;99335;-64
2023/07/10 11:06:36;;;;;;;7.10;4.50;;;;;;;34.47;28.79;101242.88;4991943;28;97731;-64
2023/07/10 11:09:08;;;;;;;6.35;4.35;;;;;;;34.25;28.68;101239.31;4988740;28;97248;-64
2023/07/10 11:11:38;;;;;;;6.60;4.88;;;;;;;34.40;29.08;101248.28;4978356;28;101953;-65
2023/07/10 11:14:06;;;;;;;6.78;5.00;;;;;;;34.39;29.50;101245.78;4981019;28;98861;-65
2023/07/10 11:16:34;;;;;;;9.13;5.35;;;;;;;34.38;28.97;101252.31;4990608;28;96913;-65
2023/07/10 11:19:02;;;;;;;7.28;4.93;;;;;;;34.39;29.76;101251.25;4987926;28;97438;-65
2023/07/10 11:21:29;;;;;;;8.43;5.82;;;;;;;34.69;29.29;101236.28;4984983;28;98455;-65
2023/07/10 11:23:55;;;;;;;7.90;5.60;;;;;;;34.76;29.12;101237.22;4986007;28;97765;-64
2023/07/10 11:26:25;;;;;;;11.63;5.60;;;;;;;34.89;28.68;101236.47;4985595;28;96736;-64
2023/07/10 11:28:53;;;;;;;8.52;5.72;;;;;;;34.90;28.49;101246.41;4986710;28;96802;-64